Airfield :







YOU CAN JOIN US ON...

 
LOGIN :

Register | Disclaimer

   EN    FR    IT 

 









Legend :    VFR   Marginal VFR   IFR   Intensive IFR   Very Intensive IFR
Visi :
Ceiling :
>= 8 km
>= 3000ft
5 to 8 km
1000 to 3000 ft
1500m to 5 km
500 to 1000 ft
800 to 1500m
200 to 500 ft
< 800m
< 200 ft
Symbols :   Thunderstorms  Fog  Heavy snow  Heavy precipitations  Wind > 20 kt






- Airport Elevation : 1709 ft
- IATA code : YKL


CYKL - Schefferville

CURRENT METAR :
  • 090500Z AUTO 31002KT 9SM OVC030 M01/M01 A3004 RMK SLP201

EXPIRED METARs :
  • 090400Z AUTO 31002KT 9SM SCT034 M01/M02 A3005 RMK SLP206
  • 090300Z AUTO 14003KT 9SM CLR 01/00 A3006 RMK SLP206

TAF TAF CYKL
Valid from the 09 at 02:00 until the 09 at 14:00 UTC


090138Z 0902/0914 12005KT P6SM BKN040
TEMPO 0902/0910 OVC020
PROB30 0906/0910 3SM -SN BR BKN008 OVC020
FM091000 05007KT P6SM SCT008 BKN015 RMK FCST BASED ON AUTO OBS. NXT FCST BY 090800Z
CZUL FIR / North America



MET'MAP, your aeronautical weather chart ! - Copyright ORBIFLY December 2007 - Disclaimer

ORBIFLY MET'MAP TEAM :

Programming & Development : Alexandra Zaïnal
Concept & original design : Baudouin d'Aumeries
Assistance for programming : Marc-Olivier Méhu
Technical & hardware support : Manuel Goepfert

Contact : metmap@orbifly.com




SOURCES & CREDITS :

   NOAA